Time;durP1;ratioP1;P1;durP2;ratioP2;P2;SDS_P1;SDS_P2;PMS_P1;PMS_P2;Temp;Humidity;BMP_temperature;BMP_pressure;BME280_temperature;BME280_humidity;BME280_pressure;Samples;Min_cycle;Max_cycle;Signal;HPM_P1;HPM_P2
2023/06/08 00:00:09;;;;;;;17.30;10.70;;;;;;;17.30;63.53;101192.22;839663;23;1177;-77
2023/06/08 00:00:33;;;;;;;16.77;10.50;;;;;;;17.30;63.52;101196.59;838935;23;1255;-77
2023/06/08 00:00:54;;;;;;;14.20;10.35;;;;;;;17.36;63.54;101209.81;843290;23;1394;-77
2023/06/08 00:01:15;;;;;;;13.88;10.00;;;;;;;17.26;63.61;101196.56;845053;23;1956;-76
2023/06/08 00:01:36;;;;;;;13.25;10.05;;;;;;;17.30;63.61;101204.50;841456;23;779;-77
2023/06/08 00:01:56;;;;;;;13.00;9.68;;;;;;;17.22;63.72;101194.78;841096;23;1083;-77
2023/06/08 00:02:18;;;;;;;14.00;10.23;;;;;;;17.24;63.81;101195.69;835791;23;1186;-77
2023/06/08 00:02:39;;;;;;;15.80;10.55;;;;;;;17.21;63.59;101197.41;835664;23;1247;-77
2023/06/08 00:03:04;;;;;;;17.08;10.68;;;;;;;17.19;63.54;101200.00;835993;23;1059;-77
2023/06/08 00:03:26;;;;;;;16.98;10.32;;;;;;;17.21;63.51;101198.28;839785;23;1094;-77
2023/06/08 00:03:47;;;;;;;15.48;10.02;;;;;;;17.17;63.51;101193.84;842898;23;1307;-76
2023/06/08 00:04:07;;;;;;;15.73;10.15;;;;;;;17.16;63.58;101205.28;843743;23;1088;-77
2023/06/08 00:04:30;;;;;;;16.60;10.00;;;;;;;17.11;63.63;101193.78;853681;23;763;-78
2023/06/08 00:04:52;;;;;;;14.60;10.00;;;;;;;17.16;63.54;101213.19;843737;23;1156;-77
2023/06/08 00:05:13;;;;;;;15.30;10.07;;;;;;;17.09;63.66;101198.19;841090;23;1084;-77
2023/06/08 00:05:43;;;;;;;14.07;10.13;;;;;;;17.06;63.67;101187.59;839844;23;1379;-77
2023/06/08 00:06:04;;;;;;;16.42;10.10;;;;;;;17.04;63.69;101195.50;840969;23;1101;-77
2023/06/08 00:06:26;;;;;;;15.75;9.95;;;;;;;17.03;63.72;101196.34;843268;23;1254;-77
2023/06/08 00:06:48;;;;;;;15.48;9.80;;;;;;;17.07;63.91;101203.44;839183;23;1275;-77
2023/06/08 00:07:10;;;;;;;14.20;9.98;;;;;;;17.02;63.99;101199.88;841128;23;970;-77
2023/06/08 00:07:34;;;;;;;13.60;10.38;;;;;;;16.98;64.00;101196.31;843901;23;1087;-77
2023/06/08 00:07:56;;;;;;;15.43;10.93;;;;;;;16.98;63.66;101201.59;845181;23;1123;-77
2023/06/08 00:08:17;;;;;;;16.75;11.43;;;;;;;16.95;63.79;101192.78;843566;23;1324;-77
2023/06/08 00:08:38;;;;;;;15.88;10.38;;;;;;;16.90;64.05;101186.59;845326;23;783;-77
2023/06/08 00:09:02;;;;;;;14.60;10.15;;;;;;;16.91;64.03;101197.13;839697;23;1325;-77
2023/06/08 00:09:22;;;;;;;14.68;10.35;;;;;;;16.88;64.04;101194.50;835740;23;1360;-77
2023/06/08 00:09:44;;;;;;;13.90;10.30;;;;;;;16.87;64.00;101195.38;841405;23;855;-77
2023/06/08 00:10:06;;;;;;;14.45;10.23;;;;;;;16.83;64.15;101202.34;841051;23;1091;-77
2023/06/08 00:10:26;;;;;;;14.82;10.45;;;;;;;16.81;64.14;101192.66;845348;23;911;-78
2023/06/08 00:10:47;;;;;;;16.50;10.60;;;;;;;16.80;64.24;101190.91;845297;23;1051;-77
2023/06/08 00:11:08;;;;;;;15.30;10.32;;;;;;;16.79;64.25;101194.41;845273;23;1034;-77
2023/06/08 00:11:28;;;;;;;15.60;10.32;;;;;;;16.84;64.36;101203.25;839954;23;1207;-77
2023/06/08 00:11:50;;;;;;;15.05;10.27;;;;;;;16.77;64.11;101186.47;838919;23;1174;-77
2023/06/08 00:12:11;;;;;;;16.38;10.80;;;;;;;16.82;64.33;101202.34;841205;23;1069;-77
2023/06/08 00:12:33;;;;;;;15.70;10.23;;;;;;;16.79;64.51;101199.69;841363;23;834;-78
2023/06/08 00:12:53;;;;;;;15.32;10.10;;;;;;;16.70;64.57;101185.56;841168;23;1040;-77
2023/06/08 00:13:16;;;;;;;14.02;9.98;;;;;;;16.70;64.48;101184.66;837078;23;1123;-76
2023/06/08 00:13:36;;;;;;;13.02;9.85;;;;;;;16.65;64.56;101187.25;837185;23;847;-77
2023/06/08 00:13:57;;;;;;;13.55;10.13;;;;;;;16.66;64.45;101185.53;835691;23;1462;-77
2023/06/08 00:14:18;;;;;;;14.60;10.80;;;;;;;16.70;64.45;101190.81;839563;23;1247;-77
2023/06/08 00:14:39;;;;;;;15.50;11.20;;;;;;;16.64;64.48;101193.41;839040;23;1430;-77
2023/06/08 00:15:01;;;;;;;15.18;11.18;;;;;;;16.64;64.47;101189.88;841146;23;983;-77
2023/06/08 00:15:21;;;;;;;13.20;10.40;;;;;;;16.60;64.67;101196.00;839413;23;1185;-77
2023/06/08 00:15:42;;;;;;;12.68;9.90;;;;;;;16.62;64.70;101195.16;840599;23;1090;-77
2023/06/08 00:16:04;;;;;;;13.40;9.90;;;;;;;16.60;64.75;101196.00;843684;23;1160;-76
2023/06/08 00:16:24;;;;;;;14.15;10.00;;;;;;;16.58;64.80;101195.97;842074;23;838;-76
2023/06/08 00:16:48;;;;;;;16.02;10.40;;;;;;;16.56;64.98;101190.69;839015;23;1363;-77
2023/06/08 00:17:08;;;;;;;17.88;10.82;;;;;;;16.51;65.14;101189.75;836129;23;1351;-77
2023/06/08 00:17:31;;;;;;;16.80;11.00;;;;;;;16.49;64.91;101188.88;838387;23;732;-77
2023/06/08 00:17:52;;;;;;;15.45;10.48;;;;;;;16.48;64.95;101183.59;839708;23;1282;-77
2023/06/08 00:18:13;;;;;;;13.80;10.52;;;;;;;16.48;64.98;101195.03;839481;23;1229;-77
2023/06/08 00:18:36;;;;;;;14.68;10.55;;;;;;;16.50;64.98;101197.66;845504;23;783;-77
2023/06/08 00:18:56;;;;;;;15.43;10.85;;;;;;;16.46;65.26;101191.47;839744;23;1105;-77
2023/06/08 00:19:17;;;;;;;15.50;10.30;;;;;;;16.49;65.20;101206.41;839524;23;1038;-77
2023/06/08 00:19:38;;;;;;;14.60;10.35;;;;;;;16.40;65.20;101192.28;841357;23;757;-77
2023/06/08 00:19:59;;;;;;;15.10;10.15;;;;;;;16.38;65.25;101186.13;841241;23;1071;-77
2023/06/08 00:20:20;;;;;;;14.00;10.27;;;;;;;16.37;65.08;101192.25;843322;23;1361;-78
2023/06/08 00:20:41;;;;;;;15.20;10.20;;;;;;;16.36;65.37;101190.50;839496;23;1436;-76
2023/06/08 00:21:03;;;;;;;15.50;10.20;;;;;;;16.37;65.35;101197.53;841087;23;1060;-77
2023/06/08 00:21:26;;;;;;;15.82;10.20;;;;;;;16.31;65.49;101187.78;842277;23;1954;-77
2023/06/08 00:21:48;;;;;;;16.55;10.55;;;;;;;16.30;65.41;101188.66;845256;23;949;-76
2023/06/08 00:22:12;;;;;;;15.98;10.15;;;;;;;16.24;65.63;101183.31;845107;23;1064;-77
2023/06/08 00:22:36;;;;;;;16.38;10.45;;;;;;;16.28;65.61;101189.50;845368;23;811;-77
2023/06/08 00:22:57;;;;;;;14.68;10.27;;;;;;;16.30;65.70;101199.19;839697;23;1171;-78
2023/06/08 00:23:17;;;;;;;15.82;10.40;;;;;;;16.27;65.52;101193.00;843417;23;1021;-77
2023/06/08 00:23:39;;;;;;;15.85;10.13;;;;;;;16.33;65.64;101200.97;843446;23;1082;-77
2023/06/08 00:24:00;;;;;;;17.25;10.77;;;;;;;16.23;65.68;101197.31;845131;23;1217;-77
2023/06/08 00:24:20;;;;;;;15.50;10.52;;;;;;;16.23;65.65;101186.78;843528;23;1276;-77
2023/06/08 00:24:41;;;;;;;18.27;10.90;;;;;;;16.22;65.75;101198.19;842966;23;1194;-77
2023/06/08 00:25:03;;;;;;;17.10;10.43;;;;;;;16.17;65.70;101190.25;843666;23;1237;-77
2023/06/08 00:25:24;;;;;;;17.20;10.55;;;;;;;16.16;65.86;101193.75;841056;23;815;-77
2023/06/08 00:25:45;;;;;;;14.60;10.20;;;;;;;16.15;65.88;101186.72;835891;23;1290;-77
2023/06/08 00:26:06;;;;;;;13.80;10.10;;;;;;;16.15;65.87;101192.00;836887;23;1033;-77
2023/06/08 00:26:27;;;;;;;13.48;9.90;;;;;;;16.18;65.75;101197.28;835925;23;1168;-77
2023/06/08 00:26:48;;;;;;;16.90;10.10;;;;;;;16.15;65.46;101194.63;839092;23;1383;-76
2023/06/08 00:27:09;;;;;;;17.55;10.25;;;;;;;16.17;65.87;101197.28;843659;23;1059;-77
2023/06/08 00:27:31;;;;;;;16.38;10.25;;;;;;;16.22;65.88;101207.88;841384;23;740;-77
2023/06/08 00:27:51;;;;;;;14.00;10.27;;;;;;;16.15;65.98;101197.25;837290;23;1047;-77
2023/06/08 00:28:12;;;;;;;13.77;10.50;;;;;;;16.18;66.08;101199.91;837148;23;993;-77
2023/06/08 00:28:33;;;;;;;13.40;10.40;;;;;;;16.17;66.06;101208.69;841399;23;882;-78
2023/06/08 00:28:53;;;;;;;15.35;10.95;;;;;;;16.14;65.95;101202.50;845222;23;997;-77
2023/06/08 00:29:14;;;;;;;14.55;10.77;;;;;;;16.13;65.98;101200.72;839546;23;1260;-77
2023/06/08 00:29:35;;;;;;;15.43;10.98;;;;;;;16.11;66.02;101197.19;840070;23;1390;-77
2023/06/08 00:29:57;;;;;;;14.82;10.60;;;;;;;16.05;66.00;101190.13;835819;23;1226;-76
2023/06/08 00:30:18;;;;;;;17.07;10.30;;;;;;;16.06;66.16;101186.63;835645;23;1232;-77
2023/06/08 00:30:40;;;;;;;17.23;10.30;;;;;;;16.11;65.96;101200.69;839054;23;1343;-78
2023/06/08 00:31:02;;;;;;;14.68;10.50;;;;;;;16.04;66.06;101193.59;839628;23;1345;-77
2023/06/08 00:31:22;;;;;;;14.60;11.00;;;;;;;16.04;65.97;101190.97;840940;23;1137;-77
2023/06/08 00:31:43;;;;;;;14.95;11.30;;;;;;;16.02;66.22;101195.31;841362;23;736;-77
2023/06/08 00:32:04;;;;;;;17.02;11.20;;;;;;;16.03;66.21;101197.09;846613;23;1167;-77
2023/06/08 00:32:25;;;;;;;18.08;11.05;;;;;;;16.07;66.18;101200.66;843917;23;1125;-77
2023/06/08 00:32:46;;;;;;;18.13;10.90;;;;;;;16.08;66.23;101199.78;839617;23;1150;-77
2023/06/08 00:33:07;;;;;;;15.95;10.90;;;;;;;15.98;66.19;101188.28;835556;23;1335;-77
2023/06/08 00:33:27;;;;;;;15.33;10.50;;;;;;;15.98;66.20;101188.28;838854;23;1251;-77
2023/06/08 00:33:48;;;;;;;14.82;10.50;;;;;;;15.98;66.24;101197.03;841177;23;1032;-76
2023/06/08 00:34:09;;;;;;;15.13;10.45;;;;;;;16.01;66.15;101190.94;838685;23;1076;-78
2023/06/08 00:34:31;;;;;;;14.88;10.55;;;;;;;15.98;66.31;101188.28;841279;23;837;-77
2023/06/08 00:34:51;;;;;;;14.77;10.37;;;;;;;15.99;66.17;101198.81;841059;23;941;-77
2023/06/08 00:35:12;;;;;;;13.52;10.43;;;;;;;16.03;66.31;101205.00;843403;23;1353;-77
2023/06/08 00:35:33;;;;;;;13.15;10.45;;;;;;;15.98;65.99;101193.53;843867;23;1192;-77
2023/06/08 00:35:55;;;;;;;13.60;10.48;;;;;;;15.98;66.13;101198.81;848015;23;1347;-77
2023/06/08 00:36:15;;;;;;;15.05;10.25;;;;;;;15.99;66.37;101200.56;839259;23;1125;-77
2023/06/08 00:36:37;;;;;;;14.60;10.20;;;;;;;15.93;66.25;101189.97;845554;23;744;-77
2023/06/08 00:36:59;;;;;;;16.00;10.13;;;;;;;15.94;66.33;101195.25;844517;23;965;-77
2023/06/08 00:37:20;;;;;;;16.73;10.30;;;;;;;15.92;66.23;101191.69;845194;23;1233;-77
2023/06/08 00:37:41;;;;;;;18.13;10.50;;;;;;;15.88;66.21;101189.91;840456;23;901;-77
2023/06/08 00:38:02;;;;;;;17.58;10.45;;;;;;;15.90;66.25;101191.69;840815;23;1339;-77
2023/06/08 00:38:23;;;;;;;16.80;10.48;;;;;;;15.86;66.35;101187.25;846407;23;1106;-77
2023/06/08 00:38:43;;;;;;;17.17;10.90;;;;;;;15.88;66.44;101193.41;842983;23;1023;-76
2023/06/08 00:39:05;;;;;;;16.70;11.10;;;;;;;15.90;66.37;101199.59;839451;23;1036;-77
2023/06/08 00:39:25;;;;;;;17.08;11.55;;;;;;;15.83;66.37;101188.94;841125;23;807;-77
2023/06/08 00:39:46;;;;;;;19.03;12.03;;;;;;;15.82;66.45;101188.09;839369;23;1221;-77
2023/06/08 00:40:07;;;;;;;17.65;11.70;;;;;;;15.87;66.60;101202.16;845098;23;1025;-77
2023/06/08 00:40:29;;;;;;;16.55;11.02;;;;;;;15.81;66.71;101191.59;843962;23;1197;-77
2023/06/08 00:40:50;;;;;;;14.65;10.68;;;;;;;15.77;66.65;101181.88;839595;23;1128;-78
2023/06/08 00:41:10;;;;;;;14.30;10.75;;;;;;;15.86;66.64;101199.53;838470;23;1903;-77
2023/06/08 00:41:31;;;;;;;15.75;11.00;;;;;;;15.80;66.85;101183.66;841319;23;713;-77
2023/06/08 00:41:52;;;;;;;17.57;11.30;;;;;;;15.76;66.68;101188.00;840980;23;1088;-77
2023/06/08 00:42:12;;;;;;;18.08;11.60;;;;;;;15.78;66.82;101185.41;843648;23;1187;-77
2023/06/08 00:42:33;;;;;;;19.87;11.57;;;;;;;15.78;66.77;101188.91;841210;23;783;-78
2023/06/08 00:42:54;;;;;;;18.63;11.00;;;;;;;15.78;66.81;101183.63;845156;23;1074;-77
2023/06/08 00:43:14;;;;;;;19.65;10.75;;;;;;;15.76;66.74;101190.63;843591;23;1131;-78
2023/06/08 00:43:35;;;;;;;17.35;10.55;;;;;;;15.79;66.80;101193.28;843804;23;832;-78
2023/06/08 00:43:56;;;;;;;17.75;10.98;;;;;;;15.80;66.87;101188.91;847755;23;1157;-78
2023/06/08 00:44:16;;;;;;;17.73;11.40;;;;;;;15.77;66.63;101192.41;849298;23;995;-78
2023/06/08 00:44:37;;;;;;;15.98;11.13;;;;;;;15.76;66.67;101185.38;839839;23;1006;-78
2023/06/08 00:44:58;;;;;;;14.43;10.60;;;;;;;15.77;66.61;101192.41;842999;23;1257;-78
2023/06/08 00:45:19;;;;;;;15.50;10.27;;;;;;;15.80;66.46;101200.31;845238;23;1211;-78
2023/06/08 00:45:41;;;;;;;18.00;10.70;;;;;;;15.73;66.63;101185.34;841269;23;839;-79
2023/06/08 00:46:02;;;;;;;19.17;11.00;;;;;;;15.70;66.73;101187.91;839662;23;1388;-78
2023/06/08 00:46:25;;;;;;;16.90;10.88;;;;;;;15.79;66.67;101203.81;838877;23;1074;-78
2023/06/08 00:46:47;;;;;;;14.73;10.60;;;;;;;15.69;66.61;101186.16;835109;23;1226;-78
2023/06/08 00:47:08;;;;;;;14.65;10.70;;;;;;;15.75;66.74;101196.75;835343;23;1168;-78
2023/06/08 00:47:29;;;;;;;16.20;10.57;;;;;;;15.76;66.65;101198.53;835907;23;1264;-77
2023/06/08 00:47:50;;;;;;;17.65;11.23;;;;;;;15.71;66.87;101200.19;835727;23;1174;-78
2023/06/08 00:48:12;;;;;;;18.33;10.93;;;;;;;15.69;66.72;101191.41;837040;23;1112;-78
2023/06/08 00:48:33;;;;;;;17.03;10.90;;;;;;;15.71;66.65;101192.31;841247;23;767;-78
2023/06/08 00:48:53;;;;;;;17.10;10.68;;;;;;;15.61;66.80;101179.03;841131;23;1066;-78
2023/06/08 00:49:16;;;;;;;15.30;10.90;;;;;;;15.68;66.82;101194.91;836838;23;1071;-78
2023/06/08 00:49:37;;;;;;;16.42;10.95;;;;;;;15.61;66.78;101184.28;839911;23;1359;-78
2023/06/08 00:49:57;;;;;;;15.30;10.73;;;;;;;15.61;66.87;101184.28;839613;23;1071;-78
2023/06/08 00:50:18;;;;;;;16.13;10.63;;;;;;;15.61;67.01;101186.91;835132;23;1155;-78
2023/06/08 00:50:41;;;;;;;17.25;10.60;;;;;;;15.60;66.98;101184.25;837288;23;847;-79
2023/06/08 00:51:02;;;;;;;18.30;10.82;;;;;;;15.57;67.11;101182.50;836961;23;1070;-78
2023/06/08 00:51:31;;;;;;;21.08;11.10;;;;;;;15.59;66.98;101186.03;837163;23;806;-78
2023/06/08 00:51:52;;;;;;;19.75;11.55;;;;;;;15.56;66.88;101179.84;841179;23;1011;-78
2023/06/08 00:52:13;;;;;;;19.30;11.57;;;;;;;15.61;66.99;101189.56;839685;23;1315;-77
2023/06/08 00:52:34;;;;;;;19.02;11.68;;;;;;;15.56;67.02;101188.59;839819;23;1249;-77
2023/06/08 00:52:55;;;;;;;16.55;11.20;;;;;;;15.56;67.05;101183.34;841124;23;1091;-78
2023/06/08 00:53:16;;;;;;;13.27;10.90;;;;;;;15.61;67.13;101188.69;839864;23;1114;-78
2023/06/08 00:53:37;;;;;;;17.15;11.30;;;;;;;15.56;67.07;101191.22;839421;23;1220;-78
2023/06/08 00:53:59;;;;;;;18.48;11.27;;;;;;;15.54;66.81;101182.44;839594;23;1374;-78
2023/06/08 00:54:24;;;;;;;20.70;11.10;;;;;;;15.56;66.78;101191.22;835676;23;1323;-78
2023/06/08 00:54:48;;;;;;;16.00;10.20;;;;;;;15.61;67.01;101199.22;837152;23;1154;-78
2023/06/08 00:55:10;;;;;;;18.15;10.43;;;;;;;15.57;66.82;101195.66;839110;23;1443;-78
2023/06/08 00:55:33;;;;;;;17.27;10.60;;;;;;;15.49;66.88;101178.88;841265;23;798;-78
2023/06/08 00:55:55;;;;;;;17.13;10.50;;;;;;;15.54;66.76;101190.31;842605;23;1127;-78
2023/06/08 00:56:18;;;;;;;15.07;10.27;;;;;;;15.49;66.82;101178.88;847630;23;1129;-78
2023/06/08 00:56:48;;;;;;;16.08;10.60;;;;;;;15.60;66.86;101207.94;843845;23;1355;-78
2023/06/08 00:57:10;;;;;;;17.10;10.45;;;;;;;15.52;67.08;101188.53;847463;23;964;-78
2023/06/08 00:57:32;;;;;;;17.10;10.50;;;;;;;15.51;67.04;101192.03;847999;23;1193;-77
2023/06/08 00:57:53;;;;;;;17.05;10.65;;;;;;;15.45;66.98;101177.94;847826;23;1099;-78
2023/06/08 00:58:15;;;;;;;14.70;10.68;;;;;;;15.47;67.06;101183.22;842718;23;1059;-77
2023/06/08 00:58:37;;;;;;;15.35;10.88;;;;;;;15.52;66.97;101194.69;843315;23;1112;-78
2023/06/08 00:59:02;;;;;;;13.95;10.60;;;;;;;15.48;67.05;101188.50;843249;23;1184;-78
2023/06/08 00:59:24;;;;;;;16.00;11.20;;;;;;;15.52;66.90;101193.78;845149;23;779;-78
2023/06/08 00:59:51;;;;;;;17.42;11.20;;;;;;;15.48;66.94;101182.34;847800;23;1213;-78
2023/06/08 01:00:12;;;;;;;19.20;10.93;;;;;;;15.48;66.96;101182.34;838556;23;1339;-78
2023/06/08 01:00:33;;;;;;;16.08;10.55;;;;;;;15.52;67.06;101197.31;843890;23;857;-78
2023/06/08 01:00:59;;;;;;;14.23;10.50;;;;;;;15.47;66.91;101189.38;845083;23;964;-78
2023/06/08 01:01:20;;;;;;;13.82;11.00;;;;;;;15.44;66.94;101181.41;840878;23;1909;-78
2023/06/08 01:01:40;;;;;;;14.80;11.00;;;;;;;15.49;67.01;101190.25;839425;23;1116;-78
2023/06/08 01:02:04;;;;;;;15.35;10.73;;;;;;;15.43;67.01;101178.78;840929;23;962;-76
2023/06/08 01:02:25;;;;;;;16.45;10.60;;;;;;;15.46;66.87;101189.34;839807;23;1352;-76
2023/06/08 01:02:48;;;;;;;18.40;10.82;;;;;;;15.46;66.94;101186.72;835745;23;1107;-75
2023/06/08 01:03:10;;;;;;;17.77;11.15;;;;;;;15.42;66.82;101187.53;835226;23;1010;-76
2023/06/08 01:03:35;;;;;;;17.65;11.10;;;;;;;15.44;66.90;101186.66;839802;23;1207;-76
2023/06/08 01:04:05;;;;;;;17.42;10.85;;;;;;;15.48;66.86;101184.97;839192;23;1211;-76
2023/06/08 01:04:26;;;;;;;16.10;10.45;;;;;;;15.42;66.85;101177.03;841252;23;822;-78
2023/06/08 01:04:50;;;;;;;14.85;10.05;;;;;;;15.44;66.69;101181.41;843636;23;1125;-78
2023/06/08 01:05:12;;;;;;;14.95;10.40;;;;;;;15.49;67.09;101194.66;844981;23;1111;-79
2023/06/08 01:05:38;;;;;;;15.07;10.73;;;;;;;15.44;66.92;101184.03;845230;23;814;-78
2023/06/08 01:06:00;;;;;;;15.25;11.10;;;;;;;15.51;67.08;101198.19;843738;23;1270;-79
2023/06/08 01:06:21;;;;;;;15.70;10.98;;;;;;;15.47;66.95;101197.25;840907;23;1136;-79
2023/06/08 01:06:48;;;;;;;15.57;10.20;;;;;;;15.49;66.96;101194.66;839841;23;1114;-78
2023/06/08 01:07:16;;;;;;;16.48;10.32;;;;;;;15.45;66.66;101183.22;836945;23;1080;-79
2023/06/08 01:08:10;;;;;;;16.67;10.40;;;;;;;15.46;66.74;101184.97;837316;23;819;-79
2023/06/08 01:08:42;;;;;;;17.15;10.40;;;;;;;15.55;66.82;101199.97;839546;23;1482;-79
2023/06/08 01:09:29;;;;;;;16.38;10.95;;;;;;;15.47;66.99;101189.38;839417;23;1264;-77
2023/06/08 01:09:58;;;;;;;17.08;10.63;;;;;;;15.46;66.78;101184.06;835578;23;1237;-78
2023/06/08 01:10:32;;;;;;;17.27;10.70;;;;;;;15.43;66.73;101178.78;839819;23;1161;-77
2023/06/08 01:11:11;;;;;;;14.02;10.50;;;;;;;15.57;66.67;101203.53;839207;23;1153;-78
2023/06/08 01:11:51;;;;;;;13.80;10.20;;;;;;;15.56;66.67;101201.75;843961;23;860;-78
2023/06/08 01:12:23;;;;;;;16.50;10.32;;;;;;;15.58;66.65;101201.78;839620;23;1156;-78
2023/06/08 01:12:57;;;;;;;17.63;10.60;;;;;;;15.55;66.52;101193.84;835921;23;1188;-77
2023/06/08 01:13:50;;;;;;;16.58;10.27;;;;;;;15.49;66.56;101189.41;839578;23;1801;-77
2023/06/08 01:14:26;;;;;;;16.00;10.40;;;;;;;15.55;66.48;101189.47;834022;23;1159;-76
2023/06/08 01:15:14;;;;;;;16.27;10.35;;;;;;;15.54;66.47;101197.34;838533;23;1001;-76
2023/06/08 01:16:02;;;;;;;17.17;11.27;;;;;;;15.51;66.36;101184.13;845220;23;818;-76
2023/06/08 01:16:28;;;;;;;15.70;9.90;;;;;;;15.55;66.43;101188.59;833450;23;1201;-76
2023/06/08 01:16:51;;;;;;;16.70;9.80;;;;;;;15.53;66.50;101196.44;835008;23;1232;-78
2023/06/08 01:17:15;;;;;;;18.20;10.23;;;;;;;15.45;66.47;101182.31;835483;23;1111;-79
2023/06/08 01:17:40;;;;;;;16.30;10.35;;;;;;;15.47;66.32;101185.84;835823;23;1301;-78
2023/06/08 01:18:07;;;;;;;14.70;10.50;;;;;;;15.47;66.31;101194.63;837071;23;1001;-77
2023/06/08 01:18:32;;;;;;;15.60;10.50;;;;;;;15.53;66.33;101199.09;837361;23;818;-78
2023/06/08 01:18:58;;;;;;;15.55;10.40;;;;;;;15.49;66.38;101190.25;835303;23;1388;-78
2023/06/08 01:19:42;;;;;;;15.20;10.30;;;;;;;15.41;66.47;101178.75;834705;23;1421;-78
2023/06/08 01:20:09;;;;;;;15.48;10.10;;;;;;;15.52;66.45;101189.44;835648;23;1267;-79
2023/06/08 01:20:55;;;;;;;14.35;9.68;;;;;;;15.43;66.31;101184.03;839836;23;858;-79
2023/06/08 01:21:35;;;;;;;14.18;9.43;;;;;;;15.40;66.35;101178.72;821024;24;1910;-78
2023/06/08 01:22:10;;;;;;;15.85;9.68;;;;;;;15.40;66.41;101183.97;825071;23;1381;-77
2023/06/08 01:23:20;;;;;;;16.58;10.20;;;;;;;15.44;66.30;101198.97;847949;23;1244;-79
2023/06/08 01:23:59;;;;;;;14.20;10.18;;;;;;;15.42;66.43;101200.69;841114;23;926;-79
2023/06/08 01:24:24;;;;;;;18.30;10.52;;;;;;;15.34;66.36;101180.41;834413;23;1395;-77
2023/06/08 01:24:49;;;;;;;18.10;10.50;;;;;;;15.27;66.37;101175.94;833061;23;808;-78
2023/06/08 01:25:11;;;;;;;15.43;10.48;;;;;;;15.35;66.45;101187.44;832844;23;1069;-79
2023/06/08 01:25:37;;;;;;;16.63;10.40;;;;;;;15.37;66.55;101191.84;831736;23;859;-77
2023/06/08 01:26:00;;;;;;;18.35;10.25;;;;;;;15.34;66.52;101190.94;835414;23;1163;-76
2023/06/08 01:26:22;;;;;;;18.63;9.77;;;;;;;15.29;66.40;101181.19;839352;23;1236;-76
2023/06/08 01:26:49;;;;;;;18.13;9.55;;;;;;;15.33;66.72;101188.28;835087;23;983;-75
2023/06/08 01:27:11;;;;;;;17.70;9.95;;;;;;;15.25;66.46;101182.91;845005;23;993;-76
2023/06/08 01:27:36;;;;;;;17.23;10.48;;;;;;;15.20;66.52;101171.41;849323;23;929;-76
2023/06/08 01:28:12;;;;;;;15.85;10.20;;;;;;;15.25;66.46;101180.28;843714;23;1375;-75
2023/06/08 01:28:34;;;;;;;14.85;10.10;;;;;;;15.18;66.68;101170.50;841280;23;823;-76
2023/06/08 01:28:56;;;;;;;17.55;10.18;;;;;;;15.26;66.73;101187.31;835276;23;1110;-76
2023/06/08 01:29:21;;;;;;;18.92;10.25;;;;;;;15.30;66.78;101186.47;839474;23;1034;-76
2023/06/08 01:29:44;;;;;;;16.30;10.23;;;;;;;15.20;66.73;101168.78;839809;23;1241;-76
2023/06/08 01:30:06;;;;;;;15.70;10.20;;;;;;;15.24;66.86;101183.75;840846;23;1091;-78
2023/06/08 01:30:27;;;;;;;15.50;10.25;;;;;;;15.25;66.75;101180.28;838800;23;1187;-78
2023/06/08 01:30:48;;;;;;;16.65;10.60;;;;;;;15.26;66.65;101187.31;844933;23;976;-78
2023/06/08 01:31:09;;;;;;;16.17;11.00;;;;;;;15.19;66.65;101174.91;838775;23;1366;-77
2023/06/08 01:31:30;;;;;;;17.55;11.00;;;;;;;15.16;66.82;101178.34;843724;23;1220;-79
2023/06/08 01:31:51;;;;;;;17.20;10.97;;;;;;;15.15;66.75;101173.97;838796;23;1092;-78
2023/06/08 01:32:12;;;;;;;18.45;11.05;;;;;;;15.14;66.69;101171.31;835046;23;1253;-77
2023/06/08 01:32:34;;;;;;;17.38;10.88;;;;;;;15.11;66.74;101166.88;835987;23;1256;-78
2023/06/08 01:32:55;;;;;;;15.80;10.23;;;;;;;15.14;66.72;101171.31;840980;23;1071;-78
2023/06/08 01:33:20;;;;;;;14.75;9.70;;;;;;;15.15;66.86;101178.31;840946;23;1088;-78
2023/06/08 01:33:41;;;;;;;14.80;9.82;;;;;;;15.23;66.77;101186.38;843483;23;1192;-77
2023/06/08 01:34:03;;;;;;;16.33;10.25;;;;;;;15.21;66.77;101189.88;844877;23;1073;-78
2023/06/08 01:34:23;;;;;;;17.92;10.73;;;;;;;15.16;66.76;101180.97;843248;23;1050;-78
2023/06/08 01:34:45;;;;;;;19.23;11.07;;;;;;;15.13;66.85;101174.78;835978;23;1268;-77
2023/06/08 01:35:07;;;;;;;18.17;11.02;;;;;;;15.18;66.81;101179.25;839435;23;1863;-77
2023/06/08 01:35:28;;;;;;;18.70;11.13;;;;;;;15.11;66.75;101173.91;841183;23;959;-77
2023/06/08 01:36:47;;;;;;;16.90;11.10;;;;;;;15.09;66.70;101179.13;838574;23;1368;-77
2023/06/08 01:37:26;;;;;;;13.90;9.82;;;;;;;15.19;66.68;101181.03;831570;23;1207;-77
2023/06/08 01:37:55;;;;;;;14.48;10.13;;;;;;;15.11;66.59;101173.91;836392;23;1095;-78
2023/06/08 01:38:45;;;;;;;18.23;10.43;;;;;;;15.14;66.58;101182.72;827515;23;1186;-78
2023/06/08 01:39:42;;;;;;;18.20;10.57;;;;;;;15.16;66.71;101180.09;811934;24;1188;-77
2023/06/08 01:40:23;;;;;;;18.65;10.55;;;;;;;15.07;66.73;101170.34;827161;23;1204;-76
2023/06/08 01:40:50;;;;;;;15.18;10.20;;;;;;;15.10;66.68;101186.13;829279;23;804;-78
2023/06/08 01:41:17;;;;;;;14.50;10.02;;;;;;;15.04;66.67;101165.00;832701;23;1899;-77
2023/06/08 01:41:44;;;;;;;15.27;10.10;;;;;;;15.07;66.68;101179.09;823900;23;2021;-77
2023/06/08 01:42:07;;;;;;;18.40;10.50;;;;;;;15.03;66.80;101172.03;823487;24;1314;-76
2023/06/08 01:42:29;;;;;;;16.88;10.50;;;;;;;15.10;66.57;101186.13;822004;24;781;-78
2023/06/08 01:42:53;;;;;;;15.32;10.30;;;;;;;15.00;66.76;101174.59;828947;23;1154;-77
2023/06/08 01:43:15;;;;;;;16.58;10.25;;;;;;;15.01;66.81;101168.47;847079;23;1052;-77
2023/06/08 01:43:40;;;;;;;17.17;10.50;;;;;;;15.00;66.89;101169.34;843814;23;1076;-77
2023/06/08 01:44:03;;;;;;;16.75;10.23;;;;;;;15.04;66.82;101181.69;841058;23;995;-77
2023/06/08 01:44:28;;;;;;;15.90;10.30;;;;;;;15.07;66.85;101181.72;841112;23;756;-77
2023/06/08 01:44:58;;;;;;;13.85;9.80;;;;;;;15.08;66.83;101185.25;839458;23;1435;-77
2023/06/08 01:45:23;;;;;;;15.30;10.45;;;;;;;15.02;66.81;101172.88;841666;23;1103;-78
2023/06/08 01:45:46;;;;;;;17.92;10.32;;;;;;;14.95;66.78;101160.50;843536;23;1114;-77
2023/06/08 01:46:11;;;;;;;19.45;10.07;;;;;;;14.98;67.01;101163.19;835559;23;1222;-78
2023/06/08 01:46:32;;;;;;;17.40;10.02;;;;;;;15.04;66.85;101173.78;841325;23;811;-78
2023/06/08 01:46:58;;;;;;;15.02;9.95;;;;;;;15.04;66.73;101181.69;840491;23;1004;-77
2023/06/08 01:47:22;;;;;;;17.05;10.32;;;;;;;14.91;66.80;101158.69;837053;23;1073;-78
2023/06/08 01:47:58;;;;;;;18.23;10.60;;;;;;;14.92;67.07;101170.94;841280;23;915;-77
2023/06/08 01:48:22;;;;;;;16.27;10.57;;;;;;;14.94;66.98;101166.63;843500;23;1193;-78
2023/06/08 01:48:45;;;;;;;16.13;10.80;;;;;;;15.00;66.83;101184.22;843844;23;1190;-78
2023/06/08 01:49:07;;;;;;;17.80;10.73;;;;;;;14.90;67.00;101164.78;839386;23;988;-78
2023/06/08 01:49:28;;;;;;;19.17;10.50;;;;;;;14.89;67.03;101165.66;841116;23;803;-77
2023/06/08 01:49:51;;;;;;;17.45;10.05;;;;;;;14.94;67.29;101177.13;836888;23;981;-78
2023/06/08 01:50:12;;;;;;;20.33;10.32;;;;;;;14.88;67.19;101166.53;840918;23;1147;-78
2023/06/08 01:50:35;;;;;;;22.63;11.15;;;;;;;14.94;66.72;101182.41;838846;23;1087;-78
2023/06/08 01:50:58;;;;;;;22.52;11.02;;;;;;;14.93;66.98;101175.34;841904;23;1155;-78
2023/06/08 01:51:20;;;;;;;19.63;10.60;;;;;;;14.80;67.23;101154.13;843543;23;1187;-77
2023/06/08 01:51:42;;;;;;;18.85;10.55;;;;;;;14.86;67.12;101168.25;841227;23;831;-77
2023/06/08 01:52:03;;;;;;;16.38;10.80;;;;;;;14.79;67.08;101152.38;836994;23;1100;-77
2023/06/08 01:52:24;;;;;;;16.13;11.10;;;;;;;14.77;67.10;101153.19;838891;23;1102;-78
2023/06/08 01:52:45;;;;;;;16.05;11.23;;;;;;;14.86;67.27;101163.00;839736;23;1192;-78